Time;durP1;ratioP1;P1;durP2;ratioP2;P2;SDS_P1;SDS_P2;PMS_P1;PMS_P2;Temp;Humidity;BMP_temperature;BMP_pressure;BME280_temperature;BME280_humidity;BME280_pressure;Samples;Min_cycle;Max_cycle;Signal;HPM_P1;HPM_P2
2022/05/25 00:01:58;;;;;;;;;;;;;;;;;;4958877;28;122508;-64
2022/05/25 00:04:25;;;;;;;;;;;;;;;;;;4932204;28;137557;-64
2022/05/25 00:06:51;;;;;;;;;;;;;;;;;;4950960;28;131162;-64
2022/05/25 00:09:17;;;;;;;;;;;;;;;;;;4951189;28;122310;-64
2022/05/25 00:11:44;;;;;;;;;;;;;;;;;;4947891;28;112082;-64
2022/05/25 00:14:10;;;;;;;;;;;;;;;;;;4948507;28;138049;-64
2022/05/25 00:16:36;;;;;;;;;;;;;;;;;;4946291;28;125601;-64
2022/05/25 00:21:48;;;;;;;;;;;;;;;;;;4942882;28;106304;-64
2022/05/25 00:24:14;;;;;;;;;;;;;;;;;;4947910;28;137889;-64
2022/05/25 00:26:41;;;;;;;;;;;;;;;;;;4954737;28;137029;-64
2022/05/25 00:29:07;;;;;;;;;;;;;;;;;;4945784;28;123197;-64
2022/05/25 00:31:33;;;;;;;;;;;;;;;;;;4950281;28;116818;-64
2022/05/25 00:34:00;;;;;;;;;;;;;;;;;;4950212;28;136960;-64
2022/05/25 00:36:26;;;;;;;;;;;;;;;;;;4942896;28;123455;-64
2022/05/25 00:38:52;;;;;;;;;;;;;;;;;;4939942;28;125246;-64
2022/05/25 00:41:18;;;;;;;;;;;;;;;;;;4949704;28;133738;-64
2022/05/25 00:43:45;;;;;;;;;;;;;;;;;;4949745;28;128457;-64
2022/05/25 00:46:11;;;;;;;;;;;;;;;;;;4947983;28;134794;-64
2022/05/25 00:48:37;;;;;;;;;;;;;;;;;;4949124;28;121625;-64
2022/05/25 00:51:13;;;;;;;;;;;;;;;;;;4951590;28;107708;-65
2022/05/25 00:53:39;;;;;;;;;;;;;;;;;;4944320;28;137870;-64
2022/05/25 00:56:05;;;;;;;;;;;;;;;;;;4958635;28;121818;-64
2022/05/25 00:58:32;;;;;;;;;;;;;;;;;;4948272;28;135438;-64
2022/05/25 01:00:58;;;;;;;;;;;;;;;;;;4958852;28;133639;-64
2022/05/25 01:03:25;;;;;;;;;;;;;;;;;;4947860;28;122860;-65
2022/05/25 01:05:51;;;;;;;;;;;;;;;;;;4948819;28;135844;-64
2022/05/25 01:08:17;;;;;;;;;;;;;;;;;;4938800;28;107480;-64
2022/05/25 01:10:43;;;;;;;;;;;;;;;;;;4949398;28;136590;-64
2022/05/25 01:13:10;;;;;;;;;;;;;;;;;;4950758;28;116313;-64
2022/05/25 01:15:36;;;;;;;;;;;;;;;;;;4947952;28;106907;-64
2022/05/25 01:18:02;;;;;;;;;;;;;;;;;;4933663;28;132908;-64
2022/05/25 01:20:29;;;;;;;;;;;;;;;;;;4949832;28;136044;-64
2022/05/25 01:22:55;;;;;;;;;;;;;;;;;;4928318;28;121373;-64
2022/05/25 01:25:21;;;;;;;;;;;;;;;;;;4950115;28;136058;-65
2022/05/25 01:27:47;;;;;;;;;;;;;;;;;;4948936;28;123117;-64
2022/05/25 01:30:14;;;;;;;;;;;;;;;;;;4944508;28;134997;-64
2022/05/25 01:32:40;;;;;;;;;;;;;;;;;;4949957;28;116908;-64
2022/05/25 01:35:06;;;;;;;;;;;;;;;;;;4929820;28;121906;-65
2022/05/25 01:37:34;;;;;;;;;;;;;;;;;;4947360;28;127412;-64
2022/05/25 01:40:00;;;;;;;;;;;;;;;;;;4948918;28;137692;-64
2022/05/25 01:42:26;;;;;;;;;;;;;;;;;;4947911;28;123124;-64
2022/05/25 01:44:53;;;;;;;;;;;;;;;;;;4951990;28;106257;-64
2022/05/25 01:47:19;;;;;;;;;;;;;;;;;;4952187;28;136345;-64
2022/05/25 01:49:45;;;;;;;;;;;;;;;;;;4942384;28;136868;-64
2022/05/25 01:52:12;;;;;;;;;;;;;;;;;;4941926;28;138499;-64
2022/05/25 01:54:38;;;;;;;;;;;;;;;;;;4933017;28;125021;-64
2022/05/25 01:57:04;;;;;;;;;;;;;;;;;;4949963;28;135869;-65
2022/05/25 01:59:31;;;;;;;;;;;;;;;;;;4962548;28;125690;-64
2022/05/25 02:04:42;;;;;;;;;;;;;;;;;;4942548;28;136031;-64
2022/05/25 02:07:08;;;;;;;;;;;;;;;;;;4944118;28;135667;-65
2022/05/25 02:09:35;;;;;;;;;;;;;;;;;;4950381;28;121985;-64
2022/05/25 02:12:01;;;;;;;;;;;;;;;;;;4943357;28;134193;-64
2022/05/25 02:14:27;;;;;;;;;;;;;;;;;;4947867;28;106922;-64
2022/05/25 02:16:53;;;;;;;;;;;;;;;;;;4947502;28;139584;-64
2022/05/25 02:19:20;;;;;;;;;;;;;;;;;;4942107;28;118787;-64
2022/05/25 02:21:47;;;;;;;;;;;;;;;;;;4948452;28;120465;-64
2022/05/25 02:24:14;;;;;;;;;;;;;;;;;;4960511;28;135040;-64
2022/05/25 02:26:41;;;;;;;;;;;;;;;;;;4946984;28;137553;-66
2022/05/25 02:29:07;;;;;;;;;;;;;;;;;;4963839;28;123778;-64
2022/05/25 02:31:36;;;;;;;;;;;;;;;;;;4946189;28;137630;-64
2022/05/25 02:34:02;;;;;;;;;;;;;;;;;;4944057;28;123460;-64
2022/05/25 02:36:29;;;;;;;;;;;;;;;;;;4936784;28;137486;-64
2022/05/25 02:38:55;;;;;;;;;;;;;;;;;;4953720;28;137611;-64
2022/05/25 02:41:21;;;;;;;;;;;;;;;;;;4950117;28;106573;-65
2022/05/25 02:43:48;;;;;;;;;;;;;;;;;;4943234;28;135192;-64
2022/05/25 02:46:14;;;;;;;;;;;;;;;;;;4943429;28;137616;-64
2022/05/25 02:48:40;;;;;;;;;;;;;;;;;;4943730;28;107327;-64
2022/05/25 02:51:07;;;;;;;;;;;;;;;;;;4950178;28;136257;-64
2022/05/25 02:53:35;;;;;;;;;;;;;;;;;;4948337;28;123012;-64
2022/05/25 02:56:01;;;;;;;;;;;;;;;;;;4951070;28;135786;-64
2022/05/25 02:58:27;;;;;;;;;;;;;;;;;;4943525;28;137686;-64
2022/05/25 03:00:54;;;;;;;;;;;;;;;;;;4953442;28;121183;-64
2022/05/25 03:03:20;;;;;;;;;;;;;;;;;;4943820;28;106710;-64
2022/05/25 03:05:46;;;;;;;;;;;;;;;;;;4940346;28;137096;-64
2022/05/25 03:08:13;;;;;;;;;;;;;;;;;;4948082;28;108197;-64
2022/05/25 03:10:39;;;;;;;;;;;;;;;;;;4945388;28;136362;-64
2022/05/25 03:13:05;;;;;;;;;;;;;;;;;;4938514;28;122346;-64
2022/05/25 03:15:32;;;;;;;;;;;;;;;;;;4945230;28;135485;-64
2022/05/25 03:17:58;;;;;;;;;;;;;;;;;;4947530;28;137771;-63
2022/05/25 03:20:24;;;;;;;;;;;;;;;;;;4934860;28;122974;-63
2022/05/25 03:22:51;;;;;;;;;;;;;;;;;;4944168;28;137125;-64
2022/05/25 03:25:17;;;;;;;;;;;;;;;;;;4941017;28;135750;-64
2022/05/25 03:27:44;;;;;;;;;;;;;;;;;;4949443;28;121932;-64
2022/05/25 03:30:10;;;;;;;;;;;;;;;;;;4937195;28;135103;-64
2022/05/25 03:32:36;;;;;;;;;;;;;;;;;;4943581;28;135563;-64
2022/05/25 03:35:02;;;;;;;;;;;;;;;;;;4943488;28;121743;-64
2022/05/25 03:37:29;;;;;;;;;;;;;;;;;;4946388;28;108282;-64
2022/05/25 03:39:55;;;;;;;;;;;;;;;;;;4947807;28;121804;-64
2022/05/25 03:42:22;;;;;;;;;;;;;;;;;;4943059;28;136352;-64
2022/05/25 03:44:48;;;;;;;;;;;;;;;;;;4957075;28;137257;-64
2022/05/25 03:47:14;;;;;;;;;;;;;;;;;;4944538;28;123078;-63
2022/05/25 03:49:41;;;;;;;;;;;;;;;;;;4940341;28;135481;-64
2022/05/25 03:52:07;;;;;;;;;;;;;;;;;;4943790;28;137000;-64
2022/05/25 03:54:33;;;;;;;;;;;;;;;;;;4938528;28;106009;-64
2022/05/25 03:57:00;;;;;;;;;;;;;;;;;;4946115;28;137068;-64
2022/05/25 03:59:26;;;;;;;;;;;;;;;;;;4941185;28;121997;-64
2022/05/25 04:01:52;;;;;;;;;;;;;;;;;;4937292;28;135142;-64
2022/05/25 04:04:19;;;;;;;;;;;;;;;;;;4949140;28;108311;-64
2022/05/25 04:06:45;;;;;;;;;;;;;;;;;;4946028;28;122925;-64
2022/05/25 04:09:11;;;;;;;;;;;;;;;;;;4940557;28;137041;-64
2022/05/25 04:11:38;;;;;;;;;;;;;;;;;;4936162;28;137143;-64
2022/05/25 04:14:04;;;;;;;;;;;;;;;;;;4944967;28;123220;-65
2022/05/25 04:16:31;;;;;;;;;;;;;;;;;;4943376;28;135853;-64
2022/05/25 04:18:58;;;;;;;;;;;;;;;;;;4950707;28;135805;-65
2022/05/25 04:21:25;;;;;;;;;;;;;;;;;;4943320;28;136438;-65
2022/05/25 04:23:51;;;;;;;;;;;;;;;;;;4945857;28;133363;-64
2022/05/25 04:26:17;;;;;;;;;;;;;;;;;;4928894;28;121544;-64
2022/05/25 04:28:43;;;;;;;;;;;;;;;;;;4951124;28;107037;-64
2022/05/25 04:31:10;;;;;;;;;;;;;;;;;;4939902;28;133996;-64
2022/05/25 04:33:39;;;;;;;;;;;;;;;;;;4940869;28;122612;-65
2022/05/25 04:36:05;;;;;;;;;;;;;;;;;;4949398;28;136537;-65
2022/05/25 04:38:31;;;;;;;;;;;;;;;;;;4948006;28;116165;-65
2022/05/25 04:40:58;;;;;;;;;;;;;;;;;;4953549;28;136907;-64
2022/05/25 04:43:25;;;;;;;;;;;;;;;;;;4940798;28;136425;-64
2022/05/25 04:45:51;;;;;;;;;;;;;;;;;;4939399;28;126011;-64
2022/05/25 04:48:19;;;;;;;;;;;;;;;;;;4948418;28;136441;-64
2022/05/25 04:50:45;;;;;;;;;;;;;;;;;;4948579;28;136091;-64
2022/05/25 04:53:12;;;;;;;;;;;;;;;;;;4946207;28;124066;-64
2022/05/25 04:58:23;;;;;;;;;;;;;;;;;;4951287;28;106670;-65
2022/05/25 05:00:49;;;;;;;;;;;;;;;;;;4951604;28;121875;-64
2022/05/25 05:03:16;;;;;;;;;;;;;;;;;;4953012;28;135395;-64
2022/05/25 05:05:42;;;;;;;;;;;;;;;;;;4946092;28;122045;-64
2022/05/25 05:08:08;;;;;;;;;;;;;;;;;;4950296;28;124833;-64
2022/05/25 05:10:35;;;;;;;;;;;;;;;;;;4946926;28;125279;-64
2022/05/25 05:13:04;;;;;;;;;;;;;;;;;;4952808;28;121940;-63
2022/05/25 05:15:30;;;;;;;;;;;;;;;;;;4939826;28;136608;-64
2022/05/25 05:17:57;;;;;;;;;;;;;;;;;;4944515;28;117384;-66
2022/05/25 05:20:37;;;;;;;;;;;;;;;;;;4947373;28;106943;-64
2022/05/25 05:23:08;;;;;;;;;;;;;;;;;;4951576;28;136964;-64
2022/05/25 05:25:35;;;;;;;;;;;;;;;;;;4948305;28;124205;-64
2022/05/25 05:28:01;;;;;;;;;;;;;;;;;;4942238;28;138537;-64
2022/05/25 05:30:27;;;;;;;;;;;;;;;;;;4946760;28;133586;-64
2022/05/25 05:32:53;;;;;;;;;;;;;;;;;;4939454;28;122795;-63
2022/05/25 05:35:20;;;;;;;;;;;;;;;;;;4937315;28;135460;-64
2022/05/25 05:37:46;;;;;;;;;;;;;;;;;;4945662;28;135784;-64
2022/05/25 05:40:12;;;;;;;;;;;;;;;;;;4946102;28;123293;-64
2022/05/25 05:42:40;;;;;;;;;;;;;;;;;;4948738;28;111972;-64
2022/05/25 05:45:07;;;;;;;;;;;;;;;;;;4953452;28;136333;-64
2022/05/25 05:47:33;;;;;;;;;;;;;;;;;;4950203;28;135152;-65
2022/05/25 05:49:59;;;;;;;;;;;;;;;;;;4947598;28;123551;-64
2022/05/25 05:52:27;;;;;;;;;;;;;;;;;;4948202;28;122512;-64
2022/05/25 05:54:53;;;;;;;;;;;;;;;;;;4949630;28;106748;-64
2022/05/25 05:57:19;;;;;;;;;;;;;;;;;;4942990;28;137833;-64
2022/05/25 05:59:46;;;;;;;;;;;;;;;;;;4957120;28;126872;-64
2022/05/25 06:02:12;;;;;;;;;;;;;;;;;;4949181;28;116199;-64
2022/05/25 06:04:39;;;;;;;;;;;;;;;;;;4949011;28;137030;-64
2022/05/25 06:07:05;;;;;;;;;;;;;;;;;;4943381;28;123392;-64
2022/05/25 06:09:31;;;;;;;;;;;;;;;;;;4947576;28;135643;-64
2022/05/25 06:11:58;;;;;;;;;;;;;;;;;;4949052;28;123571;-64
2022/05/25 06:14:24;;;;;;;;;;;;;;;;;;4946880;28;136901;-65
2022/05/25 06:19:37;;;;;;;;;;;;;;;;;;4945689;28;121818;-64
2022/05/25 06:22:03;;;;;;;;;;;;;;;;;;4946918;28;137191;-64
2022/05/25 06:24:29;;;;;;;;;;;;;;;;;;4929847;28;135088;-64
2022/05/25 06:26:56;;;;;;;;;;;;;;;;;;4943529;28;122045;-64
2022/05/25 06:29:22;;;;;;;;;;;;;;;;;;4953109;28;137473;-65
2022/05/25 06:31:48;;;;;;;;;;;;;;;;;;4945105;28;123078;-64
2022/05/25 06:34:14;;;;;;;;;;;;;;;;;;4943912;28;117994;-64
2022/05/25 06:36:41;;;;;;;;;;;;;;;;;;4945960;28;135540;-64
2022/05/25 06:39:08;;;;;;;;;;;;;;;;;;4955995;28;123422;-64
2022/05/25 06:41:34;;;;;;;;;;;;;;;;;;4963269;28;136193;-66
2022/05/25 06:44:03;;;;;;;;;;;;;;;;;;4952787;28;109648;-64
2022/05/25 06:46:29;;;;;;;;;;;;;;;;;;4946477;28;105721;-64
2022/05/25 06:48:57;;;;;;;;;;;;;;;;;;4945641;28;135191;-65
2022/05/25 06:51:23;;;;;;;;;;;;;;;;;;4944597;28;121843;-65
2022/05/25 06:53:50;;;;;;;;;;;;;;;;;;4944539;28;134156;-64
2022/05/25 06:56:16;;;;;;;;;;;;;;;;;;4952832;28;137938;-66
2022/05/25 06:58:43;;;;;;;;;;;;;;;;;;4945190;28;122048;-65
2022/05/25 07:01:09;;;;;;;;;;;;;;;;;;4944032;28;136989;-66
2022/05/25 07:03:35;;;;;;;;;;;;;;;;;;4943399;28;137051;-65
2022/05/25 07:06:02;;;;;;;;;;;;;;;;;;4946061;28;122364;-64
2022/05/25 07:08:28;;;;;;;;;;;;;;;;;;4945717;28;106802;-66
2022/05/25 07:10:54;;;;;;;;;;;;;;;;;;4946214;28;135816;-65
2022/05/25 07:13:21;;;;;;;;;;;;;;;;;;4934269;28;137487;-65
2022/05/25 07:15:49;;;;;;;;;;;;;;;;;;4936064;28;137172;-64
2022/05/25 07:18:15;;;;;;;;;;;;;;;;;;4949453;28;123807;-65
2022/05/25 07:20:41;;;;;;;;;;;;;;;;;;4951739;28;136904;-65
2022/05/25 07:23:08;;;;;;;;;;;;;;;;;;4939950;28;134946;-66
2022/05/25 07:25:34;;;;;;;;;;;;;;;;;;4946491;28;122564;-66
2022/05/25 07:28:00;;;;;;;;;;;;;;;;;;4951164;28;136603;-67
2022/05/25 07:30:28;;;;;;;;;;;;;;;;;;4949786;28;136983;-65
2022/05/25 07:32:54;;;;;;;;;;;;;;;;;;4954761;28;123204;-64
2022/05/25 07:35:20;;;;;;;;;;;;;;;;;;4945106;28;113280;-64
2022/05/25 07:37:47;;;;;;;;;;;;;;;;;;4945162;28;126140;-64
2022/05/25 07:40:13;;;;;;;;;;;;;;;;;;4944493;28;137879;-64
2022/05/25 07:42:40;;;;;;;;;;;;;;;;;;4938192;28;115004;-64
2022/05/25 07:45:07;;;;;;;;;;;;;;;;;;4941890;28;112712;-64
2022/05/25 07:47:33;;;;;;;;;;;;;;;;;;4943248;28;135357;-64
2022/05/25 07:50:00;;;;;;;;;;;;;;;;;;4947684;28;138077;-65
2022/05/25 07:52:26;;;;;;;;;;;;;;;;;;4927864;28;106358;-64
2022/05/25 07:54:52;;;;;;;;;;;;;;;;;;4943686;28;127907;-64
2022/05/25 07:57:19;;;;;;;;;;;;;;;;;;4947283;28;121827;-64
2022/05/25 07:59:45;;;;;;;;;;;;;;;;;;4945679;28;135333;-64
2022/05/25 08:07:42;;;;;;;;;;;;;;;;;;4905192;28;135609;-64
2022/05/25 08:10:08;;;;;;;;;;;;;;;;;;4908774;28;137115;-64
2022/05/25 08:12:35;;;;;;;;;;;;;;;;;;4906867;28;123100;-64
2022/05/25 08:15:01;;;;;;;;;;;;;;;;;;4911047;28;135775;-64
2022/05/25 08:17:27;;;;;;;;;;;;;;;;;;4904824;28;126444;-64
2022/05/25 08:19:54;;;;;;;;;;;;;;;;;;4910290;28;135752;-64
2022/05/25 08:22:20;;;;;;;;;;;;;;;;;;4904162;28;127703;-64
2022/05/25 08:24:46;;;;;;;;;;;;;;;;;;4909996;28;123908;-64
2022/05/25 08:27:13;;;;;;;;;;;;;;;;;;4901955;28;135369;-64
2022/05/25 08:29:39;;;;;;;;;;;;;;;;;;4897953;28;137815;-64
2022/05/25 08:32:05;;;;;;;;;;;;;;;;;;4911041;28;123275;-64
2022/05/25 08:34:32;;;;;;;;;;;;;;;;;;4932752;28;136617;-64
2022/05/25 08:36:58;;;;;;;;;;;;;;;;;;4906906;28;137246;-64
2022/05/25 08:39:24;;;;;;;;;;;;;;;;;;4905773;28;124463;-63
2022/05/25 08:41:50;;;;;;;;;;;;;;;;;;4900366;28;138169;-64
2022/05/25 08:44:17;;;;;;;;;;;;;;;;;;4904527;28;123483;-64
2022/05/25 08:46:43;;;;;;;;;;;;;;;;;;4909333;28;135178;-63
2022/05/25 08:49:10;;;;;;;;;;;;;;;;;;4904006;28;127454;-64
2022/05/25 08:51:36;;;;;;;;;;;;;;;;;;4907251;28;123493;-64
2022/05/25 08:54:03;;;;;;;;;;;;;;;;;;4909618;28;134790;-64
2022/05/25 08:56:29;;;;;;;;;;;;;;;;;;4906583;28;113895;-64
2022/05/25 08:58:56;;;;;;;;;;;;;;;;;;4914678;28;122340;-62
2022/05/25 09:01:22;;;;;;;;;;;;;;;;;;4911944;28;137786;-66
2022/05/25 09:03:48;;;;;;;;;;;;;;;;;;4907501;28;122727;-63
2022/05/25 09:06:14;;;;;;;;;;;;;;;;;;4934943;28;136997;-63
2022/05/25 09:08:41;;;;;;;;;;;;;;;;;;4953930;28;134062;-64
2022/05/25 09:11:07;;;;;;;;;;;;;;;;;;4946077;28;109532;-64
2022/05/25 09:13:33;;;;;;;;;;;;;;;;;;4945232;28;136375;-64
2022/05/25 09:16:18;;;;;;;;;;;;;;;;;;4942915;28;136877;-64
2022/05/25 09:18:45;;;;;;;;;;;;;;;;;;4957749;28;121925;-64
2022/05/25 09:21:11;;;;;;;;;;;;;;;;;;4950442;28;136399;-66
2022/05/25 09:23:37;;;;;;;;;;;;;;;;;;4947835;28;123390;-65
2022/05/25 09:26:04;;;;;;;;;;;;;;;;;;4946871;28;136327;-66
2022/05/25 09:28:30;;;;;;;;;;;;;;;;;;4931038;28;136463;-64
2022/05/25 09:30:56;;;;;;;;;;;;;;;;;;4949630;28;122653;-65
2022/05/25 09:33:23;;;;;;;;;;;;;;;;;;4953024;28;136352;-65
2022/05/25 09:35:49;;;;;;;;;;;;;;;;;;4941640;28;132543;-64
2022/05/25 09:38:15;;;;;;;;;;;;;;;;;;4949282;28;115873;-65
2022/05/25 09:40:42;;;;;;;;;;;;;;;;;;4949787;28;137531;-64
2022/05/25 09:43:08;;;;;;;;;;;;;;;;;;4950575;28;128996;-64
2022/05/25 09:45:35;;;;;;;;;;;;;;;;;;4943721;28;136770;-67
2022/05/25 09:48:01;;;;;;;;;;;;;;;;;;4964765;28;113466;-65
2022/05/25 09:50:27;;;;;;;;;;;;;;;;;;4938794;28;106631;-65
2022/05/25 09:52:54;;;;;;;;;;;;;;;;;;4966987;28;136517;-66
2022/05/25 09:55:20;;;;;;;;;;;;;;;;;;4947390;28;135883;-65
2022/05/25 09:57:46;;;;;;;;;;;;;;;;;;4955129;28;122664;-64
2022/05/25 10:00:13;;;;;;;;;;;;;;;;;;4937838;28;137028;-63
2022/05/25 10:02:39;;;;;;;;;;;;;;;;;;4940607;28;137129;-64
2022/05/25 10:05:05;;;;;;;;;;;;;;;;;;4953269;28;125423;-65
2022/05/25 10:07:32;;;;;;;;;;;;;;;;;;4950082;28;124914;-65
2022/05/25 10:09:58;;;;;;;;;;;;;;;;;;4955870;28;121835;-65
2022/05/25 10:12:24;;;;;;;;;;;;;;;;;;4944422;28;136600;-65
2022/05/25 10:14:50;;;;;;;;;;;;;;;;;;4946784;28;135785;-65
2022/05/25 10:17:17;;;;;;;;;;;;;;;;;;4959753;28;123068;-66
2022/05/25 10:19:43;;;;;;;;;;;;;;;;;;4936282;28;136537;-65
2022/05/25 10:22:12;;;;;;;;;;;;;;;;;;4944015;28;115464;-64
2022/05/25 10:24:41;;;;;;;;;;;;;;;;;;4956518;28;123274;-65
2022/05/25 10:27:08;;;;;;;;;;;;;;;;;;4952213;28;106732;-65
2022/05/25 10:37:49;;;;;;;;;;;;;;;;;;4952500;28;122632;-64
2022/05/25 10:40:15;;;;;;;;;;;;;;;;;;4943218;28;131691;-64
2022/05/25 10:42:45;;;;;;;;;;;;;;;;;;4938090;28;113093;-64
2022/05/25 10:45:12;;;;;;;;;;;;;;;;;;4947065;28;123376;-65
2022/05/25 10:47:38;;;;;;;;;;;;;;;;;;4959103;28;136074;-64
2022/05/25 10:50:05;;;;;;;;;;;;;;;;;;4950555;28;106462;-64
2022/05/25 10:52:32;;;;;;;;;;;;;;;;;;4945352;28;135119;-64
2022/05/25 10:54:58;;;;;;;;;;;;;;;;;;4951287;28;137744;-65
2022/05/25 10:57:24;;;;;;;;;;;;;;;;;;4943470;28;111282;-64
2022/05/25 10:59:50;;;;;;;;;;;;;;;;;;4945661;28;137044;-64
2022/05/25 11:02:17;;;;;;;;;;;;;;;;;;4947779;28;135833;-64
2022/05/25 11:04:43;;;;;;;;;;;;;;;;;;4948551;28;123366;-64
2022/05/25 11:07:10;;;;;;;;;;;;;;;;;;4946476;28;136849;-64
2022/05/25 11:09:36;;;;;;;;;;;;;;;;;;4947307;28;135599;-63
2022/05/25 11:12:03;;;;;;;;;;;;;;;;;;4949836;28;136838;-64
2022/05/25 11:14:32;;;;;;;;;;;;;;;;;;4943744;28;124747;-64
2022/05/25 11:16:59;;;;;;;;;;;;;;;;;;4946429;28;122582;-64
2022/05/25 11:19:26;;;;;;;;;;;;;;;;;;4943150;28;135438;-64
2022/05/25 11:21:52;;;;;;;;;;;;;;;;;;4944963;28;136961;-64
2022/05/25 11:24:19;;;;;;;;;;;;;;;;;;4950653;28;123264;-64
2022/05/25 11:26:45;;;;;;;;;;;;;;;;;;4944556;28;135253;-64
2022/05/25 11:29:11;;;;;;;;;;;;;;;;;;4943440;28;137004;-64
2022/05/25 11:31:38;;;;;;;;;;;;;;;;;;4950816;28;123414;-64
2022/05/25 11:34:04;;;;;;;;;;;;;;;;;;4940602;28;137931;-66
2022/05/25 11:36:51;;;;;;;;;;;;;;;;;;4935173;28;106815;-66
2022/05/25 11:39:17;;;;;;;;;;;;;;;;;;4952492;28;106015;-66
2022/05/25 11:41:43;;;;;;;;;;;;;;;;;;4939482;28;135850;-66
2022/05/25 11:44:10;;;;;;;;;;;;;;;;;;4948370;28;108544;-65
2022/05/25 11:46:36;;;;;;;;;;;;;;;;;;4937281;28;136257;-65
2022/05/25 11:49:22;;;;;;;;;;;;;;;;;;4941623;28;107445;-65
2022/05/25 11:51:49;;;;;;;;;;;;;;;;;;4954507;28;123471;-65
2022/05/25 11:54:15;;;;;;;;;;;;;;;;;;4947785;28;136465;-64
2022/05/25 11:56:41;;;;;;;;;;;;;;;;;;4945691;28;122891;-64
2022/05/25 11:59:07;;;;;;;;;;;;;;;;;;4939701;28;135650;-64
2022/05/25 12:01:34;;;;;;;;;;;;;;;;;;4945435;28;134742;-66
2022/05/25 12:04:00;;;;;;;;;;;;;;;;;;4949679;28;121922;-64
2022/05/25 12:06:26;;;;;;;;;;;;;;;;;;4945680;28;128734;-63
2022/05/25 12:08:53;;;;;;;;;;;;;;;;;;4947728;28;135178;-66
2022/05/25 12:11:19;;;;;;;;;;;;;;;;;;4959334;28;123501;-64
2022/05/25 12:13:45;;;;;;;;;;;;;;;;;;4942400;28;137175;-65
2022/05/25 12:16:12;;;;;;;;;;;;;;;;;;4949175;28;137571;-65
2022/05/25 12:18:39;;;;;;;;;;;;;;;;;;4945154;28;135371;-65
2022/05/25 12:21:05;;;;;;;;;;;;;;;;;;4943348;28;120446;-66
2022/05/25 12:23:31;;;;;;;;;;;;;;;;;;4946763;28;107310;-65
2022/05/25 12:25:58;;;;;;;;;;;;;;;;;;4947636;28;137215;-65
2022/05/25 12:28:24;;;;;;;;;;;;;;;;;;4942929;28;118366;-65
2022/05/25 12:30:51;;;;;;;;;;;;;;;;;;4944066;28;124228;-65
2022/05/25 12:33:18;;;;;;;;;;;;;;;;;;4944483;28;135777;-65
2022/05/25 12:35:44;;;;;;;;;;;;;;;;;;4942135;28;135911;-65
2022/05/25 12:38:11;;;;;;;;;;;;;;;;;;4953609;28;122196;-65
2022/05/25 12:40:37;;;;;;;;;;;;;;;;;;4947896;28;120988;-65
2022/05/25 12:43:04;;;;;;;;;;;;;;;;;;4936187;28;123534;-65
2022/05/25 12:48:49;;;;;;;;;;;;;;;;;;4940703;28;107352;-65
2022/05/25 12:51:08;;;;;;;;;;;;;;;;;;4944259;28;122701;-68
2022/05/25 12:53:35;;;;;;;;;;;;;;;;;;4949197;28;135801;-66
2022/05/25 12:56:01;;;;;;;;;;;;;;;;;;4950009;28;137529;-66
2022/05/25 12:58:28;;;;;;;;;;;;;;;;;;4952917;28;109104;-67
2022/05/25 13:00:54;;;;;;;;;;;;;;;;;;4948031;28;137800;-66
2022/05/25 13:03:20;;;;;;;;;;;;;;;;;;4946076;28;121764;-65
2022/05/25 13:05:47;;;;;;;;;;;;;;;;;;4945665;28;135393;-66
2022/05/25 13:08:13;;;;;;;;;;;;;;;;;;4943276;28;107293;-66
2022/05/25 13:10:39;;;;;;;;;;;;;;;;;;4936911;28;123356;-66
2022/05/25 13:13:06;;;;;;;;;;;;;;;;;;4946233;28;136310;-65
2022/05/25 13:15:32;;;;;;;;;;;;;;;;;;4946582;28;137316;-65
2022/05/25 13:17:58;;;;;;;;;;;;;;;;;;4948854;28;123544;-64
2022/05/25 13:20:25;;;;;;;;;;;;;;;;;;4948441;28;136334;-65
2022/05/25 13:22:51;;;;;;;;;;;;;;;;;;4947928;28;125196;-65
2022/05/25 13:25:20;;;;;;;;;;;;;;;;;;4948304;28;130601;-66
2022/05/25 13:27:47;;;;;;;;;;;;;;;;;;4950062;28;132907;-66
2022/05/25 13:30:13;;;;;;;;;;;;;;;;;;4946207;28;123292;-65
2022/05/25 13:32:39;;;;;;;;;;;;;;;;;;4964277;28;134283;-66
2022/05/25 13:35:06;;;;;;;;;;;;;;;;;;4943207;28;137181;-65
2022/05/25 13:37:32;;;;;;;;;;;;;;;;;;4949896;28;118832;-64
2022/05/25 13:39:58;;;;;;;;;;;;;;;;;;4941512;28;137988;-65
2022/05/25 13:42:24;;;;;;;;;;;;;;;;;;4946957;28;137765;-66
2022/05/25 13:44:51;;;;;;;;;;;;;;;;;;4958120;28;106880;-65
2022/05/25 13:47:19;;;;;;;;;;;;;;;;;;4945894;28;137023;-65
2022/05/25 13:49:46;;;;;;;;;;;;;;;;;;4949839;28;112731;-65
2022/05/25 13:52:12;;;;;;;;;;;;;;;;;;4950474;28;136612;-64
2022/05/25 13:54:38;;;;;;;;;;;;;;;;;;4940821;28;134884;-67
2022/05/25 13:57:10;;;;;;;;;;;;;;;;;;4943072;28;121300;-65
2022/05/25 13:59:36;;;;;;;;;;;;;;;;;;4949090;28;135361;-65
2022/05/25 14:02:02;;;;;;;;;;;;;;;;;;4945082;28;135775;-65
2022/05/25 14:04:29;;;;;;;;;;;;;;;;;;4961516;28;115224;-64
2022/05/25 14:06:55;;;;;;;;;;;;;;;;;;4941266;28;135844;-64
2022/05/25 14:12:06;;;;;;;;;;;;;;;;;;4941384;28;136885;-65
2022/05/25 14:14:37;;;;;;;;;;;;;;;;;;4948433;28;135856;-64
2022/05/25 14:17:03;;;;;;;;;;;;;;;;;;4942742;28;122103;-64
2022/05/25 14:19:32;;;;;;;;;;;;;;;;;;4948066;28;114512;-65
2022/05/25 14:21:59;;;;;;;;;;;;;;;;;;4946542;28;136182;-66
2022/05/25 14:24:25;;;;;;;;;;;;;;;;;;4944455;28;120025;-65
2022/05/25 14:26:51;;;;;;;;;;;;;;;;;;4948847;28;106837;-64
2022/05/25 14:29:18;;;;;;;;;;;;;;;;;;4960485;28;108031;-65
2022/05/25 14:31:44;;;;;;;;;;;;;;;;;;4944871;28;127765;-64
2022/05/25 14:34:10;;;;;;;;;;;;;;;;;;4942602;28;135794;-64
2022/05/25 14:36:37;;;;;;;;;;;;;;;;;;4942912;28;124167;-65
2022/05/25 14:39:03;;;;;;;;;;;;;;;;;;4947041;28;134890;-64
2022/05/25 14:41:29;;;;;;;;;;;;;;;;;;4961400;28;107921;-65
2022/05/25 14:43:56;;;;;;;;;;;;;;;;;;4946114;28;123452;-64
2022/05/25 14:46:22;;;;;;;;;;;;;;;;;;4946845;28;136299;-64
2022/05/25 14:48:48;;;;;;;;;;;;;;;;;;4947942;28;137235;-64
2022/05/25 14:51:15;;;;;;;;;;;;;;;;;;4943107;28;135500;-64
2022/05/25 14:53:41;;;;;;;;;;;;;;;;;;4946058;28;137210;-64
2022/05/25 14:56:09;;;;;;;;;;;;;;;;;;4946218;28;123296;-65
2022/05/25 14:58:35;;;;;;;;;;;;;;;;;;4944761;28;131976;-65
2022/05/25 15:01:02;;;;;;;;;;;;;;;;;;4943553;28;137341;-64
2022/05/25 15:03:28;;;;;;;;;;;;;;;;;;4946491;28;123708;-64
2022/05/25 15:05:54;;;;;;;;;;;;;;;;;;4943018;28;137338;-65
2022/05/25 15:08:21;;;;;;;;;;;;;;;;;;4947230;28;134484;-66
2022/05/25 15:10:47;;;;;;;;;;;;;;;;;;4940106;28;137796;-65
2022/05/25 15:13:13;;;;;;;;;;;;;;;;;;4934630;28;137141;-64
2022/05/25 15:18:30;;;;;;;;;;;;;;;;;;4939980;28;137609;-63
2022/05/25 15:20:57;;;;;;;;;;;;;;;;;;4947278;28;107478;-66
2022/05/25 15:23:23;;;;;;;;;;;;;;;;;;4940774;28;119063;-63
2022/05/25 15:25:49;;;;;;;;;;;;;;;;;;4926914;28;135177;-63
2022/05/25 15:28:16;;;;;;;;;;;;;;;;;;4945419;28;131890;-63
2022/05/25 15:30:42;;;;;;;;;;;;;;;;;;4951101;28;122656;-64
2022/05/25 15:33:08;;;;;;;;;;;;;;;;;;4942554;28;118115;-63
2022/05/25 15:35:35;;;;;;;;;;;;;;;;;;4943984;28;121749;-65
2022/05/25 15:38:04;;;;;;;;;;;;;;;;;;4945638;28;122274;-65
2022/05/25 15:40:30;;;;;;;;;;;;;;;;;;4947867;28;135700;-63
2022/05/25 15:42:57;;;;;;;;;;;;;;;;;;4943344;28;121270;-66
2022/05/25 15:45:24;;;;;;;;;;;;;;;;;;4945930;28;135755;-64
2022/05/25 15:47:50;;;;;;;;;;;;;;;;;;4944682;28;137180;-64
2022/05/25 15:50:16;;;;;;;;;;;;;;;;;;4959904;28;124079;-64
2022/05/25 15:52:42;;;;;;;;;;;;;;;;;;4950004;28;132895;-64
2022/05/25 15:55:09;;;;;;;;;;;;;;;;;;4944071;28;121986;-64
2022/05/25 15:57:35;;;;;;;;;;;;;;;;;;4937078;28;136353;-64
2022/05/25 16:00:03;;;;;;;;;;;;;;;;;;4943140;28;137616;-66
2022/05/25 16:02:30;;;;;;;;;;;;;;;;;;4946071;28;106396;-65
2022/05/25 16:04:57;;;;;;;;;;;;;;;;;;4944947;28;136890;-65
2022/05/25 16:09:11;;;;;;;;;;;;;;;;;;4938255;28;136411;-66
2022/05/25 16:10:09;;;;;;;;;;;;;;;;;;4945869;28;123235;-65
2022/05/25 16:12:35;;;;;;;;;;;;;;;;;;4945075;28;136465;-66
2022/05/25 16:15:03;;;;;;;;;;;;;;;;;;4944399;28;136498;-66
2022/05/25 16:17:29;;;;;;;;;;;;;;;;;;4935721;28;136401;-66
2022/05/25 16:19:56;;;;;;;;;;;;;;;;;;4948937;28;126291;-65
2022/05/25 16:22:22;;;;;;;;;;;;;;;;;;4941718;28;121802;-66
2022/05/25 16:24:49;;;;;;;;;;;;;;;;;;4944571;28;135335;-65
2022/05/25 16:27:15;;;;;;;;;;;;;;;;;;4942854;28;137257;-65
2022/05/25 16:29:42;;;;;;;;;;;;;;;;;;4939838;28;122710;-65
2022/05/25 16:32:13;;;;;;;;;;;;;;;;;;4944997;28;128749;-66
2022/05/25 16:34:39;;;;;;;;;;;;;;;;;;4945844;28;135454;-65
2022/05/25 16:37:09;;;;;;;;;;;;;;;;;;4942676;28;122082;-65
2022/05/25 16:39:35;;;;;;;;;;;;;;;;;;4947581;28;143142;-66
2022/05/25 16:42:02;;;;;;;;;;;;;;;;;;4944149;28;123216;-66
2022/05/25 16:44:28;;;;;;;;;;;;;;;;;;4963162;28;135263;-65
2022/05/25 16:46:55;;;;;;;;;;;;;;;;;;4943986;28;138153;-64
2022/05/25 16:49:21;;;;;;;;;;;;;;;;;;4945933;28;124728;-68
2022/05/25 16:51:47;;;;;;;;;;;;;;;;;;4946932;28;136692;-65
2022/05/25 16:54:16;;;;;;;;;;;;;;;;;;4949661;28;137918;-66
2022/05/25 16:56:42;;;;;;;;;;;;;;;;;;4946888;28;122762;-66
2022/05/25 16:59:09;;;;;;;;;;;;;;;;;;4949672;28;136766;-65